sensor_id;sensor_type;location;lat;lon;timestamp;pressure;altitude;pressure_sealevel;temperature;humidity
37610;BME280;23457;51.966;8.230;2022-09-14T00:02:15;100157.06;;;18.05;72.38
37610;BME280;23457;51.966;8.230;2022-09-14T00:04:42;100139.81;;;17.92;72.09
37610;BME280;23457;51.966;8.230;2022-09-14T00:07:08;100157.34;;;17.93;72.84
37610;BME280;23457;51.966;8.230;2022-09-14T00:09:35;100156.88;;;18.11;72.79
37610;BME280;23457;51.966;8.230;2022-09-14T00:12:01;100165.28;;;18.27;72.39
37610;BME280;23457;51.966;8.230;2022-09-14T00:14:28;100171.31;;;18.32;72.32
37610;BME280;23457;51.966;8.230;2022-09-14T00:16:55;100172.91;;;18.38;71.86
37610;BME280;23457;51.966;8.230;2022-09-14T00:19:23;100170.91;;;18.49;71.50
37610;BME280;23457;51.966;8.230;2022-09-14T00:21:52;100162.81;;;18.58;70.26
37610;BME280;23457;51.966;8.230;2022-09-14T00:24:20;100161.19;;;18.15;71.41
37610;BME280;23457;51.966;8.230;2022-09-14T00:26:47;100157.19;;;17.99;72.16
37610;BME280;23457;51.966;8.230;2022-09-14T00:29:14;100152.84;;;17.98;72.81
37610;BME280;23457;51.966;8.230;2022-09-14T00:31:40;100138.00;;;17.96;72.79
37610;BME280;23457;51.966;8.230;2022-09-14T00:34:10;100152.97;;;17.92;73.02
37610;BME280;23457;51.966;8.230;2022-09-14T00:36:40;100150.06;;;17.66;74.63
37610;BME280;23457;51.966;8.230;2022-09-14T00:39:08;100138.88;;;17.56;75.34
37610;BME280;23457;51.966;8.230;2022-09-14T00:41:36;100130.44;;;17.40;76.22
37610;BME280;23457;51.966;8.230;2022-09-14T00:44:05;100136.22;;;17.58;75.73
37610;BME280;23457;51.966;8.230;2022-09-14T00:46:59;100126.88;;;17.84;74.87
37610;BME280;23457;51.966;8.230;2022-09-14T00:49:31;100113.72;;;17.84;74.46
37610;BME280;23457;51.966;8.230;2022-09-14T00:52:03;100123.81;;;17.63;75.32
37610;BME280;23457;51.966;8.230;2022-09-14T00:54:39;100126.63;;;17.55;76.21
37610;BME280;23457;51.966;8.230;2022-09-14T00:57:06;100124.88;;;17.54;76.15
37610;BME280;23457;51.966;8.230;2022-09-14T00:59:36;100124.19;;;17.46;76.14
37610;BME280;23457;51.966;8.230;2022-09-14T01:02:04;100109.25;;;17.48;76.18
37610;BME280;23457;51.966;8.230;2022-09-14T01:04:32;100108.94;;;17.62;75.16
37610;BME280;23457;51.966;8.230;2022-09-14T01:18:59;100106.16;;;18.08;72.83
37610;BME280;23457;51.966;8.230;2022-09-14T01:21:35;100098.38;;;18.03;72.96
37610;BME280;23457;51.966;8.230;2022-09-14T01:24:17;100100.28;;;17.98;73.05
37610;BME280;23457;51.966;8.230;2022-09-14T01:29:32;100094.22;;;18.29;71.14
37610;BME280;23457;51.966;8.230;2022-09-14T01:34:36;100101.09;;;17.22;76.14
37610;BME280;23457;51.966;8.230;2022-09-14T01:40:00;100086.31;;;17.16;76.13
37610;BME280;23457;51.966;8.230;2022-09-14T01:42:29;100073.44;;;17.04;76.95
37610;BME280;23457;51.966;8.230;2022-09-14T01:45:00;100082.47;;;17.32;76.57
37610;BME280;23457;51.966;8.230;2022-09-14T01:47:30;100088.41;;;17.40;76.83
37610;BME280;23457;51.966;8.230;2022-09-14T01:50:06;100089.22;;;17.44;76.43
37610;BME280;23457;51.966;8.230;2022-09-14T01:52:39;100085.50;;;17.52;76.25
37610;BME280;23457;51.966;8.230;2022-09-14T01:55:27;100091.09;;;17.37;77.01
37610;BME280;23457;51.966;8.230;2022-09-14T01:58:06;100088.22;;;17.08;78.22
37610;BME280;23457;51.966;8.230;2022-09-14T02:00:39;100095.34;;;17.44;76.75
37610;BME280;23457;51.966;8.230;2022-09-14T02:03:14;100087.50;;;17.41;76.37
37610;BME280;23457;51.966;8.230;2022-09-14T02:05:47;100086.78;;;16.93;78.60
37610;BME280;23457;51.966;8.230;2022-09-14T02:08:16;100075.53;;;16.87;79.52
37610;BME280;23457;51.966;8.230;2022-09-14T02:10:42;100076.41;;;16.86;80.07
37610;BME280;23457;51.966;8.230;2022-09-14T02:13:09;100070.50;;;16.76;80.36
37610;BME280;23457;51.966;8.230;2022-09-14T02:15:35;100071.25;;;16.82;80.37
37610;BME280;23457;51.966;8.230;2022-09-14T02:18:03;100069.56;;;16.78;80.64
37610;BME280;23457;51.966;8.230;2022-09-14T02:20:36;100062.78;;;16.68;81.60
37610;BME280;23457;51.966;8.230;2022-09-14T02:23:05;100058.13;;;16.82;80.84
37610;BME280;23457;51.966;8.230;2022-09-14T02:25:32;100057.66;;;17.05;79.71
37610;BME280;23457;51.966;8.230;2022-09-14T02:28:00;100052.75;;;16.87;79.30
37610;BME280;23457;51.966;8.230;2022-09-14T02:30:29;100055.16;;;16.53;81.44
37610;BME280;23457;51.966;8.230;2022-09-14T02:33:10;100057.06;;;16.45;81.65
37610;BME280;23457;51.966;8.230;2022-09-14T02:35:49;100050.06;;;16.45;81.46
37610;BME280;23457;51.966;8.230;2022-09-14T02:41:07;100036.38;;;16.28;82.12
37610;BME280;23457;51.966;8.230;2022-09-14T02:43:46;100026.84;;;16.23;82.52
37610;BME280;23457;51.966;8.230;2022-09-14T02:49:06;100026.84;;;16.24;82.81
37610;BME280;23457;51.966;8.230;2022-09-14T02:51:44;100019.97;;;16.66;80.72
37610;BME280;23457;51.966;8.230;2022-09-14T02:54:30;100030.53;;;16.60;80.83
37610;BME280;23457;51.966;8.230;2022-09-14T02:57:02;100033.56;;;16.39;81.39
37610;BME280;23457;51.966;8.230;2022-09-14T02:59:29;100029.75;;;16.55;81.16
37610;BME280;23457;51.966;8.230;2022-09-14T03:01:57;100027.41;;;16.41;81.36
37610;BME280;23457;51.966;8.230;2022-09-14T03:04:26;100027.06;;;16.10;82.86
37610;BME280;23457;51.966;8.230;2022-09-14T03:06:52;100025.41;;;16.08;82.96
37610;BME280;23457;51.966;8.230;2022-09-14T03:09:19;100024.66;;;15.98;83.35
37610;BME280;23457;51.966;8.230;2022-09-14T03:11:45;100027.06;;;16.10;83.41
37610;BME280;23457;51.966;8.230;2022-09-14T03:14:12;100029.94;;;16.46;81.62
37610;BME280;23457;51.966;8.230;2022-09-14T03:16:39;100026.09;;;16.65;81.39
37610;BME280;23457;51.966;8.230;2022-09-14T03:19:05;100026.00;;;16.71;80.29
37610;BME280;23457;51.966;8.230;2022-09-14T03:21:32;100014.22;;;16.46;81.52
37610;BME280;23457;51.966;8.230;2022-09-14T03:23:59;100023.69;;;16.53;81.42
37610;BME280;23457;51.966;8.230;2022-09-14T03:26:26;100022.56;;;16.20;82.91
37610;BME280;23457;51.966;8.230;2022-09-14T03:28:56;100014.84;;;16.09;83.57
37610;BME280;23457;51.966;8.230;2022-09-14T03:31:24;100011.34;;;16.10;83.55
37610;BME280;23457;51.966;8.230;2022-09-14T03:33:55;100007.38;;;15.88;84.76
37610;BME280;23457;51.966;8.230;2022-09-14T03:36:24;100001.19;;;15.92;84.70
37610;BME280;23457;51.966;8.230;2022-09-14T03:38:53;100003.41;;;16.15;83.61
37610;BME280;23457;51.966;8.230;2022-09-14T03:41:21;99998.34;;;16.06;83.96
37610;BME280;23457;51.966;8.230;2022-09-14T03:43:47;99991.16;;;16.16;83.71
37610;BME280;23457;51.966;8.230;2022-09-14T03:46:19;99998.63;;;16.37;82.63
37610;BME280;23457;51.966;8.230;2022-09-14T03:48:47;99996.78;;;16.42;82.05
37610;BME280;23457;51.966;8.230;2022-09-14T03:51:14;99999.53;;;16.36;82.62
37610;BME280;23457;51.966;8.230;2022-09-14T03:53:41;100000.34;;;16.38;82.46
37610;BME280;23457;51.966;8.230;2022-09-14T03:56:11;99998.38;;;16.04;84.02
37610;BME280;23457;51.966;8.230;2022-09-14T03:58:38;99988.09;;;15.92;84.29
37610;BME280;23457;51.966;8.230;2022-09-14T04:01:06;99981.41;;;15.73;85.87
37610;BME280;23457;51.966;8.230;2022-09-14T04:03:33;99974.25;;;15.84;85.13
37610;BME280;23457;51.966;8.230;2022-09-14T04:05:59;99980.72;;;15.63;86.49
37610;BME280;23457;51.966;8.230;2022-09-14T04:08:26;99979.69;;;15.72;86.21
37610;BME280;23457;51.966;8.230;2022-09-14T04:10:52;99980.56;;;15.71;86.17
37610;BME280;23457;51.966;8.230;2022-09-14T04:13:19;99980.50;;;15.77;85.79
37610;BME280;23457;51.966;8.230;2022-09-14T04:15:57;99983.91;;;15.82;85.13
37610;BME280;23457;51.966;8.230;2022-09-14T04:18:25;99988.94;;;15.94;85.15
37610;BME280;23457;51.966;8.230;2022-09-14T04:21:07;99987.72;;;16.13;83.42
37610;BME280;23457;51.966;8.230;2022-09-14T04:23:35;99993.38;;;15.89;84.63
37610;BME280;23457;51.966;8.230;2022-09-14T04:26:23;99985.78;;;15.74;85.78
37610;BME280;23457;51.966;8.230;2022-09-14T04:28:50;99981.34;;;15.79;85.44
37610;BME280;23457;51.966;8.230;2022-09-14T04:31:17;99978.13;;;15.60;85.74
37610;BME280;23457;51.966;8.230;2022-09-14T04:33:45;99993.25;;;15.97;84.75
37610;BME280;23457;51.966;8.230;2022-09-14T04:36:15;99985.88;;;16.19;83.38
37610;BME280;23457;51.966;8.230;2022-09-14T04:38:42;99988.34;;;16.26;82.60
37610;BME280;23457;51.966;8.230;2022-09-14T04:41:11;99981.28;;;16.30;82.41
37610;BME280;23457;51.966;8.230;2022-09-14T04:43:39;99980.84;;;16.08;83.13
37610;BME280;23457;51.966;8.230;2022-09-14T04:46:09;99986.59;;;16.27;82.13
37610;BME280;23457;51.966;8.230;2022-09-14T04:48:36;99974.38;;;16.26;82.16
37610;BME280;23457;51.966;8.230;2022-09-14T04:51:10;99982.75;;;16.46;81.42
37610;BME280;23457;51.966;8.230;2022-09-14T04:53:39;99979.19;;;16.01;82.70
37610;BME280;23457;51.966;8.230;2022-09-14T04:56:08;99974.66;;;15.60;85.41
37610;BME280;23457;51.966;8.230;2022-09-14T04:58:36;99967.94;;;15.42;86.50
37610;BME280;23457;51.966;8.230;2022-09-14T05:01:14;99973.56;;;15.73;85.72
37610;BME280;23457;51.966;8.230;2022-09-14T05:03:42;99968.19;;;15.82;84.55
37610;BME280;23457;51.966;8.230;2022-09-14T05:06:17;99962.41;;;15.60;86.05
37610;BME280;23457;51.966;8.230;2022-09-14T05:08:44;99958.72;;;15.72;85.75
37610;BME280;23457;51.966;8.230;2022-09-14T05:11:15;99959.81;;;15.59;85.99
37610;BME280;23457;51.966;8.230;2022-09-14T05:13:41;99957.97;;;15.67;85.97
37610;BME280;23457;51.966;8.230;2022-09-14T05:18:46;99955.69;;;15.96;84.33
37610;BME280;23457;51.966;8.230;2022-09-14T05:21:16;99966.06;;;16.04;84.10
37610;BME280;23457;51.966;8.230;2022-09-14T05:23:44;99955.59;;;16.02;83.48
37610;BME280;23457;51.966;8.230;2022-09-14T05:26:11;99952.72;;;16.16;82.77
37610;BME280;23457;51.966;8.230;2022-09-14T05:28:38;99953.44;;;16.23;82.72
37610;BME280;23457;51.966;8.230;2022-09-14T05:31:10;99958.91;;;16.10;83.26
37610;BME280;23457;51.966;8.230;2022-09-14T05:33:38;99957.38;;;16.00;84.20
37610;BME280;23457;51.966;8.230;2022-09-14T05:36:06;99971.34;;;15.99;84.71
37610;BME280;23457;51.966;8.230;2022-09-14T05:38:35;99962.78;;;15.91;84.34
37610;BME280;23457;51.966;8.230;2022-09-14T05:41:03;99960.97;;;15.95;84.09
37610;BME280;23457;51.966;8.230;2022-09-14T05:43:29;99952.88;;;15.58;85.76
37610;BME280;23457;51.966;8.230;2022-09-14T05:46:03;99947.06;;;15.37;87.26
37610;BME280;23457;51.966;8.230;2022-09-14T05:48:32;99966.56;;;15.75;86.64
37610;BME280;23457;51.966;8.230;2022-09-14T05:51:00;99958.22;;;16.01;85.00
37610;BME280;23457;51.966;8.230;2022-09-14T05:53:27;99957.50;;;15.94;84.69
37610;BME280;23457;51.966;8.230;2022-09-14T05:56:13;99956.03;;;15.78;85.28
37610;BME280;23457;51.966;8.230;2022-09-14T05:58:41;99958.66;;;15.78;85.81
37610;BME280;23457;51.966;8.230;2022-09-14T06:01:11;99940.19;;;15.84;85.34
37610;BME280;23457;51.966;8.230;2022-09-14T06:03:39;99943.38;;;16.01;83.93
37610;BME280;23457;51.966;8.230;2022-09-14T06:06:07;99954.69;;;16.03;84.25
37610;BME280;23457;51.966;8.230;2022-09-14T06:08:35;99945.31;;;15.92;85.11
37610;BME280;23457;51.966;8.230;2022-09-14T06:11:06;99945.72;;;16.17;84.34
37610;BME280;23457;51.966;8.230;2022-09-14T06:13:33;99947.22;;;16.28;83.87
37610;BME280;23457;51.966;8.230;2022-09-14T06:16:10;99944.63;;;16.27;83.04
37610;BME280;23457;51.966;8.230;2022-09-14T06:18:39;99953.69;;;16.10;83.37
37610;BME280;23457;51.966;8.230;2022-09-14T06:21:07;99942.88;;;15.81;84.95
37610;BME280;23457;51.966;8.230;2022-09-14T06:23:34;99938.06;;;15.57;86.51
37610;BME280;23457;51.966;8.230;2022-09-14T06:26:02;99947.16;;;15.85;85.38
37610;BME280;23457;51.966;8.230;2022-09-14T06:28:29;99940.34;;;15.75;85.91
37610;BME280;23457;51.966;8.230;2022-09-14T06:30:56;99946.66;;;15.65;86.73
37610;BME280;23457;51.966;8.230;2022-09-14T06:33:23;99949.25;;;15.65;86.63
37610;BME280;23457;51.966;8.230;2022-09-14T06:38:25;99939.09;;;15.45;88.21
37610;BME280;23457;51.966;8.230;2022-09-14T06:40:53;99940.59;;;15.60;86.58
37610;BME280;23457;51.966;8.230;2022-09-14T06:43:27;99937.75;;;15.73;86.47
37610;BME280;23457;51.966;8.230;2022-09-14T06:45:59;99937.06;;;15.64;87.26
37610;BME280;23457;51.966;8.230;2022-09-14T06:48:28;99931.59;;;15.76;86.19
37610;BME280;23457;51.966;8.230;2022-09-14T06:51:30;99936.16;;;16.12;84.95
37610;BME280;23457;51.966;8.230;2022-09-14T06:53:58;99941.06;;;16.31;84.38
37610;BME280;23457;51.966;8.230;2022-09-14T06:56:27;99945.56;;;16.24;83.60
37610;BME280;23457;51.966;8.230;2022-09-14T06:58:54;99938.25;;;16.40;83.41
37610;BME280;23457;51.966;8.230;2022-09-14T07:01:21;99935.13;;;16.67;82.54
37610;BME280;23457;51.966;8.230;2022-09-14T07:03:47;99947.34;;;16.68;81.48
37610;BME280;23457;51.966;8.230;2022-09-14T07:06:18;99952.16;;;16.45;82.76
37610;BME280;23457;51.966;8.230;2022-09-14T07:08:46;99961.44;;;16.60;82.17
37610;BME280;23457;51.966;8.230;2022-09-14T07:11:15;99965.81;;;16.62;81.80
37610;BME280;23457;51.966;8.230;2022-09-14T07:13:43;99956.59;;;16.84;81.97
37610;BME280;23457;51.966;8.230;2022-09-14T07:16:10;99961.47;;;17.01;81.52
37610;BME280;23457;51.966;8.230;2022-09-14T07:18:37;99967.53;;;17.05;81.17
37610;BME280;23457;51.966;8.230;2022-09-14T07:21:06;99969.25;;;17.06;80.11
37610;BME280;23457;51.966;8.230;2022-09-14T07:23:35;99970.66;;;17.22;81.14
37610;BME280;23457;51.966;8.230;2022-09-14T07:26:07;99961.81;;;17.25;81.02
37610;BME280;23457;51.966;8.230;2022-09-14T07:28:35;99960.72;;;17.35;81.20
37610;BME280;23457;51.966;8.230;2022-09-14T07:31:03;99959.13;;;17.28;80.25
37610;BME280;23457;51.966;8.230;2022-09-14T07:33:30;99949.66;;;17.22;80.12
37610;BME280;23457;51.966;8.230;2022-09-14T07:36:08;99957.56;;;17.21;79.79
37610;BME280;23457;51.966;8.230;2022-09-14T07:38:35;99957.59;;;17.19;80.01
37610;BME280;23457;51.966;8.230;2022-09-14T07:41:18;99964.28;;;16.94;80.21
37610;BME280;23457;51.966;8.230;2022-09-14T07:43:49;99968.97;;;17.18;81.02
37610;BME280;23457;51.966;8.230;2022-09-14T07:46:17;99972.03;;;16.98;82.79
37610;BME280;23457;51.966;8.230;2022-09-14T07:48:44;99966.06;;;16.92;84.00
37610;BME280;23457;51.966;8.230;2022-09-14T07:51:11;99977.22;;;17.01;84.59
37610;BME280;23457;51.966;8.230;2022-09-14T07:53:40;99976.38;;;17.01;83.47
37610;BME280;23457;51.966;8.230;2022-09-14T07:56:11;99978.78;;;17.10;84.30
37610;BME280;23457;51.966;8.230;2022-09-14T07:58:39;99963.38;;;17.33;84.11
37610;BME280;23457;51.966;8.230;2022-09-14T08:01:08;99963.69;;;17.19;85.25
37610;BME280;23457;51.966;8.230;2022-09-14T08:03:40;99960.75;;;17.33;82.86
37610;BME280;23457;51.966;8.230;2022-09-14T08:06:12;99962.00;;;17.17;82.74
37610;BME280;23457;51.966;8.230;2022-09-14T08:08:41;99970.59;;;17.24;82.01
37610;BME280;23457;51.966;8.230;2022-09-14T08:13:42;99967.19;;;16.80;83.95
37610;BME280;23457;51.966;8.230;2022-09-14T08:16:09;99955.88;;;17.16;83.19
37610;BME280;23457;51.966;8.230;2022-09-14T08:18:36;99946.25;;;17.17;82.64
37610;BME280;23457;51.966;8.230;2022-09-14T08:23:31;99955.63;;;17.27;83.80
37610;BME280;23457;51.966;8.230;2022-09-14T08:26:12;99960.22;;;17.19;83.71
37610;BME280;23457;51.966;8.230;2022-09-14T08:28:39;99956.75;;;17.17;85.74
37610;BME280;23457;51.966;8.230;2022-09-14T08:31:08;99950.47;;;17.23;85.16
37610;BME280;23457;51.966;8.230;2022-09-14T08:33:39;99950.75;;;17.10;86.26
37610;BME280;23457;51.966;8.230;2022-09-14T08:36:07;99953.91;;;17.26;83.65
37610;BME280;23457;51.966;8.230;2022-09-14T08:38:34;99951.22;;;17.29;84.75
37610;BME280;23457;51.966;8.230;2022-09-14T08:44:01;99951.59;;;17.49;86.21
37610;BME280;23457;51.966;8.230;2022-09-14T08:51:41;99960.47;;;17.81;84.63
37610;BME280;23457;51.966;8.230;2022-09-14T08:54:08;99958.41;;;17.58;83.70
37610;BME280;23457;51.966;8.230;2022-09-14T08:56:39;99942.38;;;17.33;83.42
37610;BME280;23457;51.966;8.230;2022-09-14T08:59:22;99935.09;;;17.44;83.15
37610;BME280;23457;51.966;8.230;2022-09-14T09:05:02;99936.53;;;17.58;80.67
37610;BME280;23457;51.966;8.230;2022-09-14T09:07:38;99942.69;;;17.19;81.93
37610;BME280;23457;51.966;8.230;2022-09-14T09:10:10;99938.38;;;17.52;82.53
37610;BME280;23457;51.966;8.230;2022-09-14T09:12:42;99939.47;;;17.81;82.22
37610;BME280;23457;51.966;8.230;2022-09-14T09:15:23;99937.31;;;17.97;82.62
37610;BME280;23457;51.966;8.230;2022-09-14T09:18:11;99943.22;;;18.05;81.60
37610;BME280;23457;51.966;8.230;2022-09-14T09:20:43;99928.94;;;17.81;80.50
37610;BME280;23457;51.966;8.230;2022-09-14T09:23:15;99932.88;;;17.65;81.56
37610;BME280;23457;51.966;8.230;2022-09-14T09:28:30;99924.16;;;17.61;82.06
37610;BME280;23457;51.966;8.230;2022-09-14T09:31:02;99929.91;;;17.41;82.82
37610;BME280;23457;51.966;8.230;2022-09-14T09:33:30;99909.97;;;17.70;81.59
37610;BME280;23457;51.966;8.230;2022-09-14T09:35:58;99913.56;;;17.66;82.58
37610;BME280;23457;51.966;8.230;2022-09-14T09:38:26;99919.97;;;17.88;83.14
37610;BME280;23457;51.966;8.230;2022-09-14T09:40:57;99914.25;;;18.06;82.21
37610;BME280;23457;51.966;8.230;2022-09-14T09:43:25;99918.06;;;17.95;80.31
37610;BME280;23457;51.966;8.230;2022-09-14T09:46:11;99916.31;;;17.95;80.63
37610;BME280;23457;51.966;8.230;2022-09-14T09:48:40;99918.25;;;17.87;83.38
37610;BME280;23457;51.966;8.230;2022-09-14T09:51:30;99921.63;;;17.92;82.13
37610;BME280;23457;51.966;8.230;2022-09-14T09:57:02;99929.50;;;18.24;81.69
37610;BME280;23457;51.966;8.230;2022-09-14T10:02:19;99927.13;;;18.48;82.26
37610;BME280;23457;51.966;8.230;2022-09-14T10:05:05;99935.06;;;18.46;81.78
37610;BME280;23457;51.966;8.230;2022-09-14T10:07:38;99941.94;;;18.50;81.68
37610;BME280;23457;51.966;8.230;2022-09-14T10:10:11;99942.72;;;18.54;82.25
37610;BME280;23457;51.966;8.230;2022-09-14T10:12:45;99943.53;;;18.56;81.46
37610;BME280;23457;51.966;8.230;2022-09-14T10:15:29;99935.72;;;18.53;81.13
37610;BME280;23457;51.966;8.230;2022-09-14T10:20:35;99929.97;;;18.71;82.13
37610;BME280;23457;51.966;8.230;2022-09-14T10:23:29;99925.44;;;18.45;81.39
37610;BME280;23457;51.966;8.230;2022-09-14T10:28:41;99901.63;;;18.19;80.66
37610;BME280;23457;51.966;8.230;2022-09-14T10:33:37;99905.56;;;18.35;85.28
37610;BME280;23457;51.966;8.230;2022-09-14T10:38:44;99901.38;;;18.59;84.07
37610;BME280;23457;51.966;8.230;2022-09-14T10:46:28;99911.50;;;18.42;85.47
37610;BME280;23457;51.966;8.230;2022-09-14T10:49:13;99893.63;;;18.53;85.58
37610;BME280;23457;51.966;8.230;2022-09-14T10:52:11;99893.69;;;18.50;85.64
37610;BME280;23457;51.966;8.230;2022-09-14T10:54:59;99904.16;;;18.53;85.94
37610;BME280;23457;51.966;8.230;2022-09-14T10:57:53;99895.22;;;18.60;85.79
37610;BME280;23457;51.966;8.230;2022-09-14T11:00:21;99882.47;;;18.45;87.20
37610;BME280;23457;51.966;8.230;2022-09-14T11:05:54;99888.91;;;18.35;86.15
37610;BME280;23457;51.966;8.230;2022-09-14T11:08:36;99901.91;;;18.39;89.42
37610;BME280;23457;51.966;8.230;2022-09-14T11:11:31;99902.53;;;18.49;88.79
37610;BME280;23457;51.966;8.230;2022-09-14T11:19:47;99921.50;;;18.29;88.12
37610;BME280;23457;51.966;8.230;2022-09-14T11:22:30;99917.72;;;18.38;90.11
37610;BME280;23457;51.966;8.230;2022-09-14T11:25:04;99916.84;;;18.39;90.08
37610;BME280;23457;51.966;8.230;2022-09-14T11:27:57;99900.88;;;18.45;90.14
37610;BME280;23457;51.966;8.230;2022-09-14T11:30:40;99902.69;;;18.43;89.63
37610;BME280;23457;51.966;8.230;2022-09-14T11:33:39;99907.31;;;18.35;89.39
37610;BME280;23457;51.966;8.230;2022-09-14T11:36:36;99914.25;;;18.37;90.16
37610;BME280;23457;51.966;8.230;2022-09-14T11:39:21;99901.25;;;18.33;90.13
37610;BME280;23457;51.966;8.230;2022-09-14T11:44:21;99905.50;;;18.37;88.95
37610;BME280;23457;51.966;8.230;2022-09-14T11:46:54;99912.53;;;18.36;89.00
37610;BME280;23457;51.966;8.230;2022-09-14T11:49:33;99902.78;;;18.40;88.41
37610;BME280;23457;51.966;8.230;2022-09-14T11:52:20;99904.41;;;18.44;89.95
37610;BME280;23457;51.966;8.230;2022-09-14T11:54:48;99902.63;;;18.46;89.23
37610;BME280;23457;51.966;8.230;2022-09-14T11:57:18;99904.22;;;18.50;88.87
37610;BME280;23457;51.966;8.230;2022-09-14T12:12:42;99884.72;;;18.27;90.91
37610;BME280;23457;51.966;8.230;2022-09-14T12:17:53;99880.97;;;18.05;91.56
37610;BME280;23457;51.966;8.230;2022-09-14T12:20:44;99878.56;;;18.29;91.57
37610;BME280;23457;51.966;8.230;2022-09-14T12:35:59;99884.50;;;18.04;94.14
37610;BME280;23457;51.966;8.230;2022-09-14T12:56:46;99876.34;;;17.82;93.98
37610;BME280;23457;51.966;8.230;2022-09-14T12:59:16;99878.44;;;17.70;96.18
37610;BME280;23457;51.966;8.230;2022-09-14T13:02:17;99879.97;;;17.43;98.63
37610;BME280;23457;51.966;8.230;2022-09-14T13:04:51;99866.03;;;17.75;97.22
37610;BME280;23457;51.966;8.230;2022-09-14T13:07:19;99868.19;;;17.92;96.82
37610;BME280;23457;51.966;8.230;2022-09-14T13:09:55;99867.47;;;18.17;94.53
37610;BME280;23457;51.966;8.230;2022-09-14T13:12:29;99869.16;;;18.20;93.69
37610;BME280;23457;51.966;8.230;2022-09-14T13:14:59;99876.53;;;18.07;92.54
37610;BME280;23457;51.966;8.230;2022-09-14T13:17:27;99874.06;;;18.01;92.20
37610;BME280;23457;51.966;8.230;2022-09-14T13:20:00;99860.09;;;17.99;91.84
37610;BME280;23457;51.966;8.230;2022-09-14T13:22:31;99862.22;;;18.17;91.80
37610;BME280;23457;51.966;8.230;2022-09-14T13:24:58;99856.47;;;18.03;91.64
37610;BME280;23457;51.966;8.230;2022-09-14T13:27:28;99861.66;;;18.06;91.81
37610;BME280;23457;51.966;8.230;2022-09-14T13:30:06;99852.84;;;18.09;92.18
37610;BME280;23457;51.966;8.230;2022-09-14T13:32:34;99852.78;;;18.10;92.79
37610;BME280;23457;51.966;8.230;2022-09-14T13:35:04;99826.75;;;18.01;92.59
37610;BME280;23457;51.966;8.230;2022-09-14T13:37:31;99843.44;;;17.99;94.48
37610;BME280;23457;51.966;8.230;2022-09-14T13:39:58;99846.66;;;17.79;94.25
37610;BME280;23457;51.966;8.230;2022-09-14T13:42:25;99844.84;;;17.81;94.99
37610;BME280;23457;51.966;8.230;2022-09-14T13:44:52;99839.25;;;17.93;94.20
37610;BME280;23457;51.966;8.230;2022-09-14T13:47:21;99832.75;;;17.74;95.17
37610;BME280;23457;51.966;8.230;2022-09-14T13:49:50;99823.31;;;17.67;95.91
37610;BME280;23457;51.966;8.230;2022-09-14T13:54:47;99828.09;;;17.85;96.86
37610;BME280;23457;51.966;8.230;2022-09-14T13:57:17;99827.69;;;17.68;96.50
37610;BME280;23457;51.966;8.230;2022-09-14T14:00:15;99816.53;;;17.24;97.76
37610;BME280;23457;51.966;8.230;2022-09-14T14:02:57;99824.34;;;17.27;96.06
37610;BME280;23457;51.966;8.230;2022-09-14T14:05:27;99816.00;;;17.10;95.53
37610;BME280;23457;51.966;8.230;2022-09-14T14:07:56;99812.09;;;17.26;95.90
37610;BME280;23457;51.966;8.230;2022-09-14T14:10:26;99804.41;;;17.20;97.11
37610;BME280;23457;51.966;8.230;2022-09-14T14:12:54;99809.09;;;17.41;98.02
37610;BME280;23457;51.966;8.230;2022-09-14T14:17:50;99804.09;;;17.65;97.53
37610;BME280;23457;51.966;8.230;2022-09-14T14:25:53;99801.34;;;17.71;98.11
37610;BME280;23457;51.966;8.230;2022-09-14T14:28:24;99802.75;;;17.82;96.39
37610;BME280;23457;51.966;8.230;2022-09-14T14:30:52;99781.13;;;17.73;95.76
37610;BME280;23457;51.966;8.230;2022-09-14T14:33:19;99789.94;;;17.36;97.27
37610;BME280;23457;51.966;8.230;2022-09-14T14:35:47;99786.19;;;17.46;98.29
37610;BME280;23457;51.966;8.230;2022-09-14T14:38:14;99795.81;;;17.47;95.30
37610;BME280;23457;51.966;8.230;2022-09-14T14:40:41;99786.03;;;17.52;94.97
37610;BME280;23457;51.966;8.230;2022-09-14T14:43:17;99802.94;;;17.42;95.35
37610;BME280;23457;51.966;8.230;2022-09-14T14:45:44;99803.69;;;17.47;94.70
37610;BME280;23457;51.966;8.230;2022-09-14T14:48:12;99803.50;;;17.53;93.74
37610;BME280;23457;51.966;8.230;2022-09-14T14:50:38;99792.75;;;17.63;94.61
37610;BME280;23457;51.966;8.230;2022-09-14T14:53:05;99798.44;;;17.47;93.37
37610;BME280;23457;51.966;8.230;2022-09-14T14:55:32;99793.59;;;17.65;93.29
37610;BME280;23457;51.966;8.230;2022-09-14T14:58:00;99800.44;;;17.72;94.17
37610;BME280;23457;51.966;8.230;2022-09-14T15:00:30;99801.06;;;17.80;92.42
37610;BME280;23457;51.966;8.230;2022-09-14T15:02:57;99796.56;;;17.85;91.86
37610;BME280;23457;51.966;8.230;2022-09-14T15:05:24;99800.03;;;17.85;91.68
37610;BME280;23457;51.966;8.230;2022-09-14T15:07:51;99798.06;;;17.94;92.17
37610;BME280;23457;51.966;8.230;2022-09-14T15:10:22;99801.34;;;17.71;91.95
37610;BME280;23457;51.966;8.230;2022-09-14T15:12:49;99805.38;;;17.82;92.17
37610;BME280;23457;51.966;8.230;2022-09-14T15:15:21;99816.75;;;17.83;91.60
37610;BME280;23457;51.966;8.230;2022-09-14T15:17:49;99807.81;;;17.88;91.56
37610;BME280;23457;51.966;8.230;2022-09-14T15:20:16;99808.56;;;17.94;92.01
37610;BME280;23457;51.966;8.230;2022-09-14T15:22:46;99802.38;;;17.96;91.59
37610;BME280;23457;51.966;8.230;2022-09-14T15:25:13;99778.59;;;17.70;93.48
37610;BME280;23457;51.966;8.230;2022-09-14T15:27:40;99795.63;;;17.86;93.18
37610;BME280;23457;51.966;8.230;2022-09-14T15:30:08;99798.16;;;17.89;91.89
37610;BME280;23457;51.966;8.230;2022-09-14T15:32:35;99786.63;;;17.95;91.00
37610;BME280;23457;51.966;8.230;2022-09-14T15:35:02;99791.94;;;17.93;90.88
37610;BME280;23457;51.966;8.230;2022-09-14T15:37:29;99785.03;;;17.89;92.37
37610;BME280;23457;51.966;8.230;2022-09-14T15:39:55;99782.22;;;17.64;90.20